Aviation Digital Data Service (ADDS)

Output produced by METARs form (1545 UTC 03 June 2015)
found at http://aviationweather.gov/adds/metars/
 
KSLK 031247Z 0313/0412 04005KT P6SM SCT002 
     FM031400 05005KT P6SM SKC 
     FM040000 00000KT P6SM SKC